createdAt,value
2023-10-25T00:00:40.642Z,100078.91
2023-10-25T00:03:11.855Z,100073.16
2023-10-25T00:05:39.983Z,100067.41
2023-10-25T00:08:09.175Z,100069.84
2023-10-25T00:10:37.083Z,100066.06
2023-10-25T00:13:04.984Z,100063.06
2023-10-25T00:15:33.081Z,100063.53
2023-10-25T00:18:01.028Z,100063.97
2023-10-25T00:20:28.945Z,100063.69
2023-10-25T00:22:56.755Z,100062.94
2023-10-25T00:25:25.923Z,100059.19
2023-10-25T00:27:53.792Z,100051.47
2023-10-25T00:30:21.720Z,100058.56
2023-10-25T00:32:49.604Z,100050.88
2023-10-25T00:35:18.090Z,100057.97
2023-10-25T00:37:45.933Z,100047.00
2023-10-25T00:40:14.115Z,100042.75
2023-10-25T00:42:43.905Z,100056.81
2023-10-25T00:45:12.111Z,100046.84
2023-10-25T00:47:40.589Z,100057.69
2023-10-25T00:50:10.705Z,100054.25
2023-10-25T00:52:38.783Z,100046.56
2023-10-25T00:55:07.925Z,100051.69
2023-10-25T00:57:36.087Z,100051.41
2023-10-25T01:00:06.719Z,100056.53
2023-10-25T01:02:34.639Z,100053.06
2023-10-25T01:05:02.569Z,100050.78
2023-10-25T01:07:30.433Z,100045.97
2023-10-25T01:09:58.351Z,100058.03
2023-10-25T01:12:26.232Z,100051.56
2023-10-25T01:14:54.069Z,100043.41
2023-10-25T01:17:23.292Z,100050.06
2023-10-25T01:19:52.042Z,100050.50
2023-10-25T01:22:19.970Z,100041.16
2023-10-25T01:24:49.284Z,100044.34
2023-10-25T01:27:17.138Z,100044.34
2023-10-25T01:29:45.010Z,100041.50
2023-10-25T01:32:14.070Z,100043.28
2023-10-25T01:34:41.948Z,100036.06
2023-10-25T01:37:09.794Z,100042.84
2023-10-25T01:39:37.693Z,100040.59
2023-10-25T01:42:08.344Z,100034.41
2023-10-25T01:44:36.178Z,100035.47
2023-10-25T01:47:04.086Z,100028.97
2023-10-25T01:49:31.963Z,100031.09
2023-10-25T01:51:59.867Z,100025.66
2023-10-25T01:54:28.037Z,100017.97
2023-10-25T01:56:55.870Z,100017.69
2023-10-25T01:59:25.120Z,100016.03
2023-10-25T02:01:53.038Z,100012.81
2023-10-25T02:04:20.930Z,100014.06
2023-10-25T02:06:53.057Z,100007.09
2023-10-25T02:09:21.295Z,100008.75
2023-10-25T02:11:49.392Z,100007.41
2023-10-25T02:14:17.235Z,100000.78
2023-10-25T02:16:46.625Z,100006.53
2023-10-25T02:19:14.802Z,100001.09
2023-10-25T02:21:43.021Z,99999.41
2023-10-25T02:24:13.385Z,99995.66
2023-10-25T02:26:41.213Z,99996.28
2023-10-25T02:29:09.215Z,99987.06
2023-10-25T02:31:37.609Z,99988.41
2023-10-25T02:34:06.971Z,99978.03
2023-10-25T02:36:36.217Z,99978.78
2023-10-25T02:39:04.162Z,99982.41
2023-10-25T02:41:32.356Z,99971.69
2023-10-25T02:44:00.227Z,99972.59
2023-10-25T02:46:28.801Z,99967.63
2023-10-25T02:48:56.710Z,99974.28
2023-10-25T02:51:25.946Z,99960.41
2023-10-25T02:53:54.845Z,99962.81
2023-10-25T02:56:22.744Z,99967.00
2023-10-25T02:58:50.561Z,99963.72
2023-10-25T03:01:23.516Z,99967.63
2023-10-25T03:03:51.764Z,99964.16
2023-10-25T03:06:20.577Z,99963.13
2023-10-25T03:08:49.817Z,99959.34
2023-10-25T03:11:17.678Z,99950.28
2023-10-25T03:13:45.984Z,99953.75
2023-10-25T03:16:14.912Z,99961.63
2023-10-25T03:18:43.011Z,99955.13
2023-10-25T03:21:10.975Z,99952.13
2023-10-25T03:23:38.829Z,99953.75
2023-10-25T03:26:08.680Z,99951.22
2023-10-25T03:28:40.067Z,99960.25
2023-10-25T03:31:10.655Z,99948.81
2023-10-25T03:33:38.818Z,99948.34
2023-10-25T03:36:06.858Z,99953.31
2023-10-25T03:38:36.214Z,99946.41
2023-10-25T03:41:06.129Z,99942.94
2023-10-25T03:43:36.417Z,99940.22
2023-10-25T03:46:05.867Z,99945.66
2023-10-25T03:48:34.873Z,99946.41
2023-10-25T03:51:05.074Z,99931.31
2023-10-25T03:53:32.973Z,99930.56
2023-10-25T03:56:00.882Z,99927.53
2023-10-25T03:58:28.768Z,99929.81
2023-10-25T04:01:02.419Z,99922.88
2023-10-25T04:03:31.218Z,99926.78
2023-10-25T04:05:59.075Z,99932.66
2023-10-25T04:08:27.114Z,99924.53
2023-10-25T04:10:55.769Z,99919.88
2023-10-25T04:13:24.122Z,99923.78
2023-10-25T04:15:57.158Z,99923.03
2023-10-25T04:18:27.705Z,99913.69
2023-10-25T04:20:56.998Z,99911.13
2023-10-25T04:23:25.702Z,99911.25
2023-10-25T04:25:53.651Z,99905.69
2023-10-25T04:28:21.564Z,99899.97
2023-10-25T04:30:50.770Z,99900.88
2023-10-25T04:33:18.743Z,99899.66
2023-10-25T04:38:15.867Z,99894.41
2023-10-25T04:40:43.690Z,99892.00
2023-10-25T04:43:11.694Z,99885.06
2023-10-25T04:45:39.590Z,99883.56
2023-10-25T04:48:07.581Z,99884.44
2023-10-25T04:50:38.680Z,99883.38
2023-10-25T04:53:08.566Z,99887.16
2023-10-25T04:55:37.484Z,99878.28
2023-10-25T04:58:07.097Z,99881.28
2023-10-25T05:00:35.053Z,99871.81
2023-10-25T05:03:03.293Z,99872.72
2023-10-25T05:05:32.046Z,99865.94
2023-10-25T05:08:00.424Z,99860.34
2023-10-25T05:10:30.475Z,99860.47
2023-10-25T05:12:59.005Z,99861.81
2023-10-25T05:15:28.773Z,99857.75
2023-10-25T05:17:57.588Z,99857.31
2023-10-25T05:20:26.425Z,99857.16
2023-10-25T05:22:57.423Z,99855.19
2023-10-25T05:25:25.926Z,99853.53
2023-10-25T05:27:55.964Z,99853.09
2023-10-25T05:30:24.694Z,99848.41
2023-10-25T05:32:55.164Z,99850.66
2023-10-25T05:35:23.794Z,99847.50
2023-10-25T05:37:52.197Z,99855.63
2023-10-25T05:40:22.232Z,99849.75
2023-10-25T05:42:50.858Z,99847.34
2023-10-25T05:45:20.185Z,99842.22
2023-10-25T05:47:48.720Z,99845.38
2023-10-25T05:50:17.388Z,99837.53
2023-10-25T05:52:46.489Z,99843.72
2023-10-25T05:55:16.313Z,99845.22
2023-10-25T05:57:47.045Z,99835.88
2023-10-25T06:00:16.276Z,99844.00
2023-10-25T06:02:46.920Z,99842.78
2023-10-25T06:05:15.696Z,99833.75
2023-10-25T06:07:44.415Z,99835.56
2023-10-25T06:10:13.478Z,99826.19
2023-10-25T06:12:42.661Z,99816.84
2023-10-25T06:15:11.871Z,99814.44
2023-10-25T06:17:40.100Z,99815.47
2023-10-25T06:20:11.221Z,99813.81
2023-10-25T06:22:38.918Z,99803.25
2023-10-25T06:25:13.061Z,99807.00
2023-10-25T06:27:41.792Z,99802.31
2023-10-25T06:30:10.744Z,99802.63
2023-10-25T06:32:38.574Z,99807.13
2023-10-25T06:35:07.273Z,99803.22
2023-10-25T06:37:37.149Z,99806.66
2023-10-25T06:40:06.406Z,99812.41
2023-10-25T06:42:34.962Z,99806.03
2023-10-25T06:45:03.777Z,99801.19
2023-10-25T06:47:32.107Z,99800.47
2023-10-25T06:50:00.514Z,99797.56
2023-10-25T06:52:28.839Z,99802.53
2023-10-25T06:54:58.712Z,99791.97
2023-10-25T06:57:26.995Z,99790.59
2023-10-25T06:59:55.255Z,99783.94
2023-10-25T07:02:35.390Z,99784.22
2023-10-25T07:05:11.570Z,99781.06
2023-10-25T07:07:40.938Z,99780.59
2023-10-25T07:10:12.075Z,99774.69
2023-10-25T07:12:40.389Z,99780.72
2023-10-25T07:15:09.323Z,99775.84
2023-10-25T07:17:38.988Z,99773.41
2023-10-25T07:20:08.048Z,99769.03
2023-10-25T07:22:36.431Z,99764.63
2023-10-25T07:25:04.549Z,99767.94
2023-10-25T07:27:33.775Z,99761.59
2023-10-25T07:30:01.657Z,99766.09
2023-10-25T07:32:31.992Z,99760.47
2023-10-25T07:34:59.887Z,99751.41
2023-10-25T07:37:27.760Z,99745.47
2023-10-25T07:39:55.678Z,99746.06
2023-10-25T07:42:23.860Z,99739.69
2023-10-25T07:44:53.202Z,99741.78
2023-10-25T07:47:21.933Z,99739.59
2023-10-25T07:49:49.888Z,99730.53
2023-10-25T07:52:18.968Z,99725.66
2023-10-25T07:54:46.795Z,99718.06
2023-10-25T07:57:40.758Z,99717.13
2023-10-25T08:00:05.512Z,99708.06
2023-10-25T08:02:40.248Z,99705.13
2023-10-25T08:05:10.866Z,99696.78
2023-10-25T08:07:38.940Z,99696.59
2023-10-25T08:10:08.073Z,99696.13
2023-10-25T08:12:37.080Z,99699.13
2023-10-25T08:15:08.178Z,99688.06
2023-10-25T08:17:36.023Z,99691.06
2023-10-25T08:20:06.173Z,99681.97
2023-10-25T08:22:35.137Z,99686.19
2023-10-25T08:25:03.135Z,99683.78
2023-10-25T08:27:31.114Z,99675.91
2023-10-25T08:29:58.990Z,99680.84
2023-10-25T08:32:28.233Z,99681.63
2023-10-25T08:35:00.295Z,99670.53
2023-10-25T08:37:28.863Z,99675.06
2023-10-25T08:39:56.650Z,99672.59
2023-10-25T08:42:24.506Z,99672.13
2023-10-25T08:44:52.499Z,99670.63
2023-10-25T08:47:20.798Z,99669.69
2023-10-25T08:49:51.502Z,99665.72
2023-10-25T08:52:26.171Z,99672.69
2023-10-25T08:54:54.120Z,99672.19
2023-10-25T08:57:22.002Z,99670.53
2023-10-25T08:59:52.637Z,99677.00
2023-10-25T09:02:20.633Z,99678.47
2023-10-25T09:05:10.707Z,99663.66
2023-10-25T09:07:39.676Z,99668.16
2023-10-25T09:10:14.333Z,99668.44
2023-10-25T09:12:42.190Z,99664.47
2023-10-25T09:15:10.780Z,99664.75
2023-10-25T09:17:38.707Z,99658.09
2023-10-25T09:20:11.210Z,99658.38
2023-10-25T09:22:39.045Z,99647.75
2023-10-25T09:25:07.629Z,99645.03
2023-10-25T09:27:44.155Z,99648.78
2023-10-25T09:32:48.951Z,99630.75
2023-10-25T09:35:18.442Z,99634.50
2023-10-25T09:37:46.278Z,99626.88
2023-10-25T09:40:15.179Z,99629.13
2023-10-25T09:42:46.705Z,99622.19
2023-10-25T09:45:17.169Z,99638.78
2023-10-25T09:47:50.721Z,99636.84
2023-10-25T09:50:32.429Z,99640.03
2023-10-25T09:53:06.895Z,99632.13
2023-10-25T09:55:37.030Z,99623.97
2023-10-25T09:58:05.407Z,99621.03
2023-10-25T10:00:33.324Z,99617.09
2023-10-25T10:03:08.730Z,99613.63
2023-10-25T10:05:47.100Z,99602.97
2023-10-25T10:08:17.867Z,99595.84
2023-10-25T10:10:50.720Z,99581.75
2023-10-25T10:13:20.988Z,99573.84
2023-10-25T10:16:01.608Z,99580.53
2023-10-25T10:18:30.644Z,99596.88
2023-10-25T10:21:04.452Z,99584.28
2023-10-25T10:23:36.978Z,99582.56
2023-10-25T10:26:06.189Z,99580.13
2023-10-25T10:28:44.329Z,99564.06
2023-10-25T10:31:13.377Z,99576.44
2023-10-25T10:33:46.172Z,99563.84
2023-10-25T10:36:24.874Z,99562.41
2023-10-25T10:39:15.399Z,99566.59
2023-10-25T10:41:44.140Z,99557.00
2023-10-25T10:44:13.425Z,99548.34
2023-10-25T10:46:49.297Z,99542.91
2023-10-25T10:49:20.807Z,99546.66
2023-10-25T10:51:50.437Z,99541.19
2023-10-25T10:54:18.558Z,99537.50
2023-10-25T10:56:46.452Z,99529.59
2023-10-25T10:59:14.618Z,99527.88
2023-10-25T11:01:43.327Z,99524.69
2023-10-25T11:04:11.310Z,99520.75
2023-10-25T11:06:40.736Z,99513.31
2023-10-25T11:09:10.320Z,99511.88
2023-10-25T11:11:38.179Z,99514.09
2023-10-25T11:14:06.791Z,99504.22
2023-10-25T11:16:34.642Z,99502.25
2023-10-25T11:19:10.240Z,99502.53
2023-10-25T11:21:38.192Z,99496.81
2023-10-25T11:24:09.105Z,99495.84
2023-10-25T11:26:41.653Z,99491.88
2023-10-25T11:29:10.072Z,99478.25
2023-10-25T11:31:37.909Z,99479.75
2023-10-25T11:34:05.976Z,99476.06
2023-10-25T11:36:33.962Z,99468.13
2023-10-25T11:39:08.793Z,99461.47
2023-10-25T11:41:38.285Z,99455.03
2023-10-25T11:44:08.144Z,99456.06
2023-10-25T11:46:37.649Z,99444.91
2023-10-25T11:49:07.006Z,99441.72
2023-10-25T11:51:35.917Z,99437.75
2023-10-25T11:54:17.435Z,99427.09
2023-10-25T11:56:49.402Z,99418.44
2023-10-25T11:59:17.473Z,99419.19
2023-10-25T12:01:45.706Z,99420.94
2023-10-25T12:04:13.665Z,99419.50
2023-10-25T12:06:41.470Z,99415.53
2023-10-25T12:09:09.274Z,99408.81
2023-10-25T12:11:40.285Z,99409.84
2023-10-25T12:14:17.517Z,99412.06
2023-10-25T12:16:52.984Z,99398.44
2023-10-25T12:19:20.794Z,99396.72
2023-10-25T12:21:48.730Z,99395.50
2023-10-25T12:24:16.582Z,99399.44
2023-10-25T12:26:44.430Z,99390.31
2023-10-25T12:29:13.559Z,99388.59
2023-10-25T12:31:41.469Z,99386.34
2023-10-25T12:34:09.329Z,99390.31
2023-10-25T12:36:37.201Z,99387.84
2023-10-25T12:39:05.449Z,99390.09
2023-10-25T12:41:34.107Z,99377.19
2023-10-25T12:44:03.485Z,99381.91
2023-10-25T12:46:32.903Z,99374.22
2023-10-25T12:49:00.732Z,99367.25
2023-10-25T12:51:28.644Z,99358.34
2023-10-25T12:53:56.481Z,99359.84
2023-10-25T12:56:24.520Z,99360.59
2023-10-25T12:58:52.777Z,99353.88
2023-10-25T13:01:20.723Z,99353.63
2023-10-25T13:03:49.996Z,99345.44
2023-10-25T13:06:17.951Z,99342.47
2023-10-25T13:08:45.872Z,99346.44
2023-10-25T13:11:14.025Z,99331.31
2023-10-25T13:13:41.949Z,99334.03
2023-10-25T13:16:09.908Z,99321.16
2023-10-25T13:18:37.889Z,99321.16
2023-10-25T13:21:07.236Z,99311.72
2023-10-25T13:23:35.798Z,99309.75
2023-10-25T13:26:03.775Z,99307.78
2023-10-25T13:28:31.619Z,99304.53
2023-10-25T13:30:59.484Z,99299.59
2023-10-25T13:33:27.959Z,99289.91
2023-10-25T13:35:56.142Z,99290.41
2023-10-25T13:38:25.394Z,99287.44
2023-10-25T13:40:53.239Z,99293.34
2023-10-25T13:43:21.184Z,99284.44
2023-10-25T13:45:49.039Z,99287.44
2023-10-25T13:48:17.211Z,99292.38
2023-10-25T13:50:45.214Z,99279.00
2023-10-25T13:53:13.008Z,99286.44
2023-10-25T13:55:42.266Z,99277.50
2023-10-25T13:58:14.172Z,99278.00
2023-10-25T14:00:44.532Z,99278.25
2023-10-25T14:03:12.522Z,99280.22
2023-10-25T14:05:43.992Z,99275.00
2023-10-25T14:08:12.453Z,99268.81
2023-10-25T14:10:47.828Z,99273.06
2023-10-25T14:15:49.283Z,99269.81
2023-10-25T14:18:17.471Z,99269.06
2023-10-25T14:20:45.978Z,99264.88
2023-10-25T14:23:13.835Z,99263.13
2023-10-25T14:25:42.536Z,99258.91
2023-10-25T14:28:11.901Z,99263.88
2023-10-25T14:30:40.960Z,99242.06
2023-10-25T14:33:10.098Z,99254.69
2023-10-25T14:35:39.859Z,99251.25
2023-10-25T14:38:07.954Z,99247.03
2023-10-25T14:40:40.090Z,99250.50
2023-10-25T14:43:07.928Z,99243.78
2023-10-25T14:45:37.977Z,99243.78
2023-10-25T14:48:06.322Z,99249.25
2023-10-25T14:50:35.965Z,99251.50
2023-10-25T14:53:04.480Z,99243.06
2023-10-25T14:55:34.838Z,99245.78
2023-10-25T14:58:02.940Z,99242.84
2023-10-25T15:00:30.816Z,99240.59
2023-10-25T15:03:00.357Z,99248.78
2023-10-25T15:05:28.373Z,99246.78
2023-10-25T15:07:56.637Z,99244.31
2023-10-25T15:10:24.536Z,99244.31
2023-10-25T15:12:52.479Z,99248.50
2023-10-25T15:15:22.583Z,99242.84
2023-10-25T15:17:50.572Z,99247.03
2023-10-25T15:20:20.074Z,99241.59
2023-10-25T15:22:47.897Z,99243.56
2023-10-25T15:25:15.736Z,99245.78
2023-10-25T15:27:43.556Z,99241.59
2023-10-25T15:30:12.440Z,99240.34
2023-10-25T15:32:40.476Z,99238.84
2023-10-25T15:35:09.373Z,99245.03
2023-10-25T15:37:38.570Z,99249.75
2023-10-25T15:40:16.360Z,99240.84
2023-10-25T15:42:46.176Z,99240.84
2023-10-25T15:45:16.114Z,99239.59
2023-10-25T15:47:44.799Z,99239.59
2023-10-25T15:50:13.761Z,99236.88
2023-10-25T15:52:56.015Z,99245.03
2023-10-25T15:55:29.767Z,99244.31
2023-10-25T15:57:57.620Z,99249.75
2023-10-25T16:00:25.531Z,99246.78
2023-10-25T16:02:53.500Z,99250.50
2023-10-25T16:05:22.276Z,99246.28
2023-10-25T16:07:51.474Z,99253.75
2023-10-25T16:10:19.367Z,99253.47
2023-10-25T16:12:47.286Z,99250.75
2023-10-25T16:15:15.394Z,99248.78
2023-10-25T16:17:47.376Z,99249.03
2023-10-25T16:20:16.225Z,99248.78
2023-10-25T16:22:46.176Z,99254.69
2023-10-25T16:25:16.026Z,99256.94
2023-10-25T16:27:43.863Z,99250.97
2023-10-25T16:30:13.804Z,99257.94
2023-10-25T16:32:41.836Z,99262.16
2023-10-25T16:35:11.178Z,99256.69
2023-10-25T16:37:39.008Z,99250.97
2023-10-25T16:40:08.113Z,99261.63
2023-10-25T16:42:37.318Z,99266.84
2023-10-25T16:45:05.731Z,99261.63
2023-10-25T16:47:33.666Z,99265.88
2023-10-25T16:50:01.958Z,99267.81
2023-10-25T16:52:30.012Z,99269.81
2023-10-25T16:54:58.486Z,99272.28
2023-10-25T16:57:26.662Z,99273.78
2023-10-25T16:59:55.858Z,99275.28
2023-10-25T17:02:23.749Z,99276.53
2023-10-25T17:04:51.734Z,99277.00
2023-10-25T17:07:19.615Z,99277.25
2023-10-25T17:09:47.760Z,99269.81
2023-10-25T17:12:15.648Z,99280.72
2023-10-25T17:14:44.821Z,99278.00
2023-10-25T17:17:14.049Z,99281.22
2023-10-25T17:19:41.941Z,99279.97
2023-10-25T17:22:09.951Z,99279.47
2023-10-25T17:24:38.596Z,99286.38
2023-10-25T17:27:06.609Z,99285.91
2023-10-25T17:29:34.550Z,99288.91
2023-10-25T17:32:02.433Z,99296.59
2023-10-25T17:34:31.729Z,99293.34
2023-10-25T17:36:59.780Z,99294.09
2023-10-25T17:39:27.780Z,99290.63
2023-10-25T17:41:55.599Z,99295.34
2023-10-25T17:44:23.957Z,99287.38
2023-10-25T17:46:53.414Z,99285.91
2023-10-25T17:49:21.339Z,99292.09
2023-10-25T17:51:51.531Z,99301.03
2023-10-25T17:54:19.406Z,99303.00
2023-10-25T17:56:47.252Z,99300.03
2023-10-25T17:59:15.138Z,99300.78
2023-10-25T18:01:42.945Z,99310.94
2023-10-25T18:04:10.958Z,99311.91
2023-10-25T18:06:55.195Z,99313.16
2023-10-25T18:09:28.105Z,99312.66
2023-10-25T18:11:55.991Z,99313.41
2023-10-25T18:14:23.854Z,99315.91
2023-10-25T18:16:51.700Z,99322.09
2023-10-25T18:19:22.165Z,99320.84
2023-10-25T18:21:50.039Z,99315.38
2023-10-25T18:24:18.626Z,99318.84
2023-10-25T18:26:47.878Z,99319.34
2023-10-25T18:29:15.769Z,99324.31
2023-10-25T18:31:55.508Z,99324.56
2023-10-25T18:34:28.635Z,99325.56
2023-10-25T18:36:57.736Z,99330.25
2023-10-25T18:39:26.953Z,99327.28
2023-10-25T18:41:57.080Z,99331.47
2023-10-25T18:44:25.106Z,99328.75
2023-10-25T18:46:53.075Z,99339.41
2023-10-25T18:49:21.041Z,99336.19
2023-10-25T18:51:48.928Z,99328.75
2023-10-25T18:54:19.913Z,99331.47
2023-10-25T18:56:48.208Z,99334.72
2023-10-25T18:59:17.516Z,99333.47
2023-10-25T19:01:46.149Z,99334.22
2023-10-25T19:04:14.056Z,99345.63
2023-10-25T19:06:46.165Z,99346.84
2023-10-25T19:09:16.049Z,99353.28
2023-10-25T19:11:44.079Z,99358.75
2023-10-25T19:14:11.948Z,99362.72
2023-10-25T19:16:42.639Z,99363.72
2023-10-25T19:19:10.527Z,99366.19
2023-10-25T19:21:38.424Z,99371.63
2023-10-25T19:24:07.218Z,99377.34
2023-10-25T19:26:45.151Z,99383.06
2023-10-25T19:29:17.162Z,99387.53
2023-10-25T19:31:46.754Z,99388.78
2023-10-25T19:34:14.804Z,99377.38
2023-10-25T19:36:44.880Z,99385.06
2023-10-25T19:39:12.883Z,99392.50
2023-10-25T19:41:40.724Z,99393.50
2023-10-25T19:44:09.423Z,99405.13
2023-10-25T19:46:37.465Z,99408.13
2023-10-25T19:49:07.228Z,99412.31
2023-10-25T19:51:36.259Z,99408.59
2023-10-25T19:54:04.564Z,99400.66
2023-10-25T19:56:33.761Z,99402.63
2023-10-25T19:59:01.854Z,99410.81
2023-10-25T20:01:29.828Z,99413.53
2023-10-25T20:03:59.969Z,99413.28
2023-10-25T20:06:29.388Z,99420.25
2023-10-25T20:08:58.289Z,99431.63
2023-10-25T20:11:26.426Z,99425.44
2023-10-25T20:13:54.401Z,99427.41
2023-10-25T20:16:22.346Z,99441.31
2023-10-25T20:18:51.371Z,99447.50
2023-10-25T20:21:19.284Z,99441.53
2023-10-25T20:23:48.616Z,99439.59
2023-10-25T20:26:30.003Z,99443.06
2023-10-25T20:29:02.200Z,99451.97
2023-10-25T20:31:30.166Z,99455.19
2023-10-25T20:33:58.165Z,99460.16
2023-10-25T20:36:26.333Z,99459.66
2023-10-25T20:38:55.621Z,99466.34
2023-10-25T20:41:23.607Z,99472.06
2023-10-25T20:43:51.520Z,99469.06
2023-10-25T20:46:20.710Z,99471.28
2023-10-25T20:48:55.444Z,99471.28
2023-10-25T20:51:24.883Z,99472.78
2023-10-25T20:53:53.292Z,99468.06
2023-10-25T20:56:22.937Z,99473.53
2023-10-25T20:58:50.967Z,99471.06
2023-10-25T21:01:18.837Z,99475.75
2023-10-25T21:03:46.861Z,99466.06
2023-10-25T21:06:14.805Z,99464.59
2023-10-25T21:08:42.798Z,99461.59
2023-10-25T21:11:12.466Z,99467.06
2023-10-25T21:13:41.913Z,99473.75
2023-10-25T21:16:13.237Z,99481.94
2023-10-25T21:18:41.521Z,99484.66
2023-10-25T21:21:09.518Z,99481.16
2023-10-25T21:23:41.352Z,99487.38
2023-10-25T21:26:10.075Z,99483.16
2023-10-25T21:28:37.898Z,99481.41
2023-10-25T21:31:08.485Z,99482.38
2023-10-25T21:33:36.577Z,99486.31
2023-10-25T21:36:05.877Z,99490.50
2023-10-25T21:38:33.729Z,99490.25
2023-10-25T21:41:03.146Z,99487.00
2023-10-25T21:43:31.220Z,99495.63
2023-10-25T21:45:59.144Z,99491.13
2023-10-25T21:48:28.434Z,99491.63
2023-10-25T21:51:00.264Z,99493.31
2023-10-25T21:53:29.478Z,99509.63
2023-10-25T21:56:21.679Z,99510.34
2023-10-25T21:59:50.608Z,99513.78
2023-10-25T22:01:33.657Z,99517.22
2023-10-25T22:04:04.121Z,99520.16
2023-10-25T22:06:32.859Z,99519.41
2023-10-25T22:09:00.765Z,99519.38
2023-10-25T22:11:28.582Z,99523.81
2023-10-25T22:13:56.415Z,99522.34
2023-10-25T22:16:24.271Z,99524.13
2023-10-25T22:18:52.265Z,99524.84
2023-10-25T22:21:21.560Z,99524.84
2023-10-25T22:23:49.688Z,99522.88
2023-10-25T22:26:17.538Z,99522.34
2023-10-25T22:28:45.454Z,99529.25
2023-10-25T22:31:13.276Z,99529.03
2023-10-25T22:33:41.216Z,99530.97
2023-10-25T22:36:11.083Z,99535.38
2023-10-25T22:38:40.278Z,99525.94
2023-10-25T22:41:13.000Z,99529.91
2023-10-25T22:43:44.661Z,99535.13
2023-10-25T22:46:12.470Z,99539.28
2023-10-25T22:48:40.418Z,99534.31
2023-10-25T22:51:09.375Z,99536.75
2023-10-25T22:53:37.262Z,99547.38
2023-10-25T22:56:07.490Z,99547.31
2023-10-25T22:58:35.739Z,99549.31
2023-10-25T23:01:06.856Z,99546.50
2023-10-25T23:03:34.580Z,99551.66
2023-10-25T23:06:02.445Z,99553.47
2023-10-25T23:08:30.358Z,99554.19
2023-10-25T23:10:58.244Z,99554.66
2023-10-25T23:13:27.385Z,99550.47
2023-10-25T23:15:55.243Z,99548.47
2023-10-25T23:18:23.243Z,99546.22
2023-10-25T23:20:51.639Z,99546.44
2023-10-25T23:23:20.090Z,99555.75
2023-10-25T23:25:47.863Z,99549.03
2023-10-25T23:28:15.672Z,99564.63
2023-10-25T23:30:44.881Z,99570.53
2023-10-25T23:33:12.746Z,99577.00
2023-10-25T23:35:40.598Z,99576.81
2023-10-25T23:38:08.436Z,99573.84
2023-10-25T23:40:36.300Z,99571.88
2023-10-25T23:43:04.218Z,99568.69
2023-10-25T23:45:32.119Z,99565.50
2023-10-25T23:48:01.342Z,99566.44
2023-10-25T23:50:31.034Z,99570.66
2023-10-25T23:52:58.824Z,99571.63
2023-10-25T23:55:26.786Z,99563.72
2023-10-25T23:57:54.612Z,99571.88
